createdAt,value
2023-03-24T00:00:12.821Z,11.07
2023-03-24T00:03:20.899Z,11.07
2023-03-24T00:06:29.725Z,11.06
2023-03-24T00:09:38.085Z,11.03
2023-03-24T00:12:45.728Z,11.02
2023-03-24T00:15:53.748Z,10.99
2023-03-24T00:19:02.855Z,10.98
2023-03-24T00:22:10.317Z,10.98
2023-03-24T00:25:18.059Z,10.95
2023-03-24T00:28:27.367Z,10.91
2023-03-24T00:31:35.151Z,10.86
2023-03-24T00:34:42.552Z,10.84
2023-03-24T00:37:52.349Z,10.84
2023-03-24T00:40:59.923Z,10.88
2023-03-24T00:44:07.436Z,10.99
2023-03-24T00:47:16.173Z,11.16
2023-03-24T00:50:24.261Z,11.35
2023-03-24T00:53:31.886Z,11.47
2023-03-24T00:56:41.204Z,11.61
2023-03-24T00:59:49.434Z,11.70
2023-03-24T01:02:57.338Z,11.72
2023-03-24T01:06:04.693Z,11.78
2023-03-24T01:09:13.926Z,11.78
2023-03-24T01:12:21.181Z,11.77
2023-03-24T01:15:29.321Z,11.67
2023-03-24T01:18:39.240Z,11.61
2023-03-24T01:21:46.656Z,11.57
2023-03-24T01:24:54.579Z,11.56
2023-03-24T01:28:04.009Z,11.53
2023-03-24T01:31:11.486Z,11.50
2023-03-24T01:34:19.457Z,11.47
2023-03-24T01:37:28.648Z,11.47
2023-03-24T01:40:36.347Z,11.50
2023-03-24T01:43:44.310Z,11.54
2023-03-24T01:46:51.914Z,11.54
2023-03-24T01:50:00.925Z,11.52
2023-03-24T01:53:08.903Z,11.49
2023-03-24T01:56:16.679Z,11.53
2023-03-24T01:59:25.778Z,11.52
2023-03-24T02:02:33.614Z,11.50
2023-03-24T02:05:41.697Z,11.52
2023-03-24T02:08:50.707Z,11.53
2023-03-24T02:11:58.264Z,11.61
2023-03-24T02:15:06.326Z,11.65
2023-03-24T02:18:14.980Z,11.71
2023-03-24T02:21:22.726Z,11.78
2023-03-24T02:24:30.996Z,11.83
2023-03-24T02:27:38.199Z,11.85
2023-03-24T02:30:47.652Z,11.83
2023-03-24T02:33:55.392Z,11.83
2023-03-24T02:37:02.980Z,11.82
2023-03-24T02:40:12.123Z,11.82
2023-03-24T02:43:19.678Z,11.82
2023-03-24T02:46:27.877Z,11.77
2023-03-24T02:49:37.062Z,11.78
2023-03-24T02:52:44.873Z,11.77
2023-03-24T02:55:53.383Z,11.75
2023-03-24T02:59:02.631Z,11.77
2023-03-24T03:02:10.451Z,11.83
2023-03-24T03:05:18.423Z,11.85
2023-03-24T03:08:27.146Z,11.86
2023-03-24T03:11:35.481Z,11.89
2023-03-24T03:14:43.521Z,11.86
2023-03-24T03:17:50.781Z,11.85
2023-03-24T03:21:00.321Z,11.85
2023-03-24T03:24:08.104Z,11.90
2023-03-24T03:27:15.814Z,11.97
2023-03-24T03:30:25.156Z,12.01
2023-03-24T03:33:32.807Z,12.05
2023-03-24T03:36:40.546Z,12.06
2023-03-24T03:39:50.005Z,12.09
2023-03-24T03:42:57.593Z,12.13
2023-03-24T03:46:05.423Z,12.15
2023-03-24T03:49:14.406Z,12.20
2023-03-24T03:52:22.278Z,12.21
2023-03-24T03:55:29.715Z,12.21
2023-03-24T03:58:37.367Z,12.23
2023-03-24T04:01:47.152Z,12.26
2023-03-24T04:05:03.563Z,12.23
2023-03-24T04:07:59.299Z,12.15
2023-03-24T04:11:08.896Z,12.15
2023-03-24T04:14:16.076Z,12.13
2023-03-24T04:17:24.075Z,12.09
2023-03-24T04:20:33.504Z,12.06
2023-03-24T04:23:40.754Z,12.04
2023-03-24T04:26:48.706Z,12.01
2023-03-24T04:29:57.644Z,12.02
2023-03-24T04:33:05.388Z,11.99
2023-03-24T04:36:13.039Z,12.02
2023-03-24T04:39:20.599Z,12.01
2023-03-24T04:42:29.439Z,11.99
2023-03-24T04:45:36.731Z,12.04
2023-03-24T04:48:44.640Z,12.05
2023-03-24T04:51:53.874Z,12.05
2023-03-24T04:55:00.914Z,12.02
2023-03-24T04:58:08.631Z,12.05
2023-03-24T05:01:17.929Z,12.08
2023-03-24T05:04:25.095Z,12.08
2023-03-24T05:07:33.073Z,12.09
2023-03-24T05:10:41.958Z,12.12
2023-03-24T05:13:49.953Z,12.12
2023-03-24T05:16:58.016Z,12.19
2023-03-24T05:20:05.449Z,12.23
2023-03-24T05:23:14.510Z,12.24
2023-03-24T05:26:22.354Z,12.30
2023-03-24T05:29:29.860Z,12.34
2023-03-24T05:32:38.902Z,12.38
2023-03-24T05:35:47.065Z,12.34
2023-03-24T05:38:55.039Z,12.37
2023-03-24T05:42:04.047Z,12.41
2023-03-24T05:45:11.642Z,12.45
2023-03-24T05:48:19.458Z,12.51
2023-03-24T05:51:28.307Z,12.52
2023-03-24T05:54:35.859Z,12.54
2023-03-24T05:57:43.779Z,12.52
2023-03-24T06:00:52.111Z,12.54
2023-03-24T06:03:59.829Z,12.56
2023-03-24T06:07:07.766Z,12.62
2023-03-24T06:10:14.808Z,12.66
2023-03-24T06:13:23.811Z,12.70
2023-03-24T06:16:31.819Z,12.69
2023-03-24T06:19:38.833Z,12.75
2023-03-24T06:22:48.019Z,12.87
2023-03-24T06:25:55.835Z,12.96
2023-03-24T06:29:02.929Z,12.97
2023-03-24T06:32:12.136Z,12.99
2023-03-24T06:35:19.490Z,13.03
2023-03-24T06:38:26.808Z,13.07
2023-03-24T06:41:35.793Z,13.11
2023-03-24T06:44:43.306Z,13.15
2023-03-24T06:47:50.804Z,13.17
2023-03-24T06:50:58.629Z,13.15
2023-03-24T06:54:07.287Z,13.21
2023-03-24T06:57:14.813Z,13.29
2023-03-24T07:00:21.899Z,13.37
2023-03-24T07:03:31.092Z,13.43
2023-03-24T07:06:50.923Z,13.38
2023-03-24T07:09:42.809Z,13.37
2023-03-24T07:12:51.829Z,13.32
2023-03-24T07:15:59.271Z,13.24
2023-03-24T07:19:06.642Z,13.12
2023-03-24T07:22:15.903Z,13.09
2023-03-24T07:25:23.438Z,13.06
2023-03-24T07:28:30.956Z,13.07
2023-03-24T07:31:38.727Z,13.07
2023-03-24T07:34:47.298Z,13.07
2023-03-24T07:37:54.997Z,13.09
2023-03-24T07:41:02.990Z,13.06
2023-03-24T07:44:11.465Z,13.11
2023-03-24T07:47:19.074Z,13.17
2023-03-24T07:50:26.445Z,13.30
2023-03-24T07:53:34.871Z,13.47
2023-03-24T07:56:42.687Z,13.54
2023-03-24T07:59:49.933Z,13.62
2023-03-24T08:02:58.809Z,13.49
2023-03-24T08:06:06.089Z,13.37
2023-03-24T08:09:13.502Z,13.30
2023-03-24T08:12:21.178Z,13.32
2023-03-24T08:15:30.300Z,13.51
2023-03-24T08:18:37.665Z,13.80
2023-03-24T08:21:45.310Z,13.95
2023-03-24T08:24:53.766Z,13.99
2023-03-24T08:28:01.484Z,14.01
2023-03-24T08:31:09.253Z,13.89
2023-03-24T08:34:17.854Z,14.02
2023-03-24T08:37:25.678Z,13.98
2023-03-24T08:40:33.337Z,13.91
2023-03-24T08:43:41.652Z,13.89
2023-03-24T08:46:49.526Z,13.89
2023-03-24T08:49:56.842Z,13.87
2023-03-24T08:53:05.703Z,13.95
2023-03-24T08:56:13.466Z,13.87
2023-03-24T08:59:20.769Z,13.71
2023-03-24T09:02:28.271Z,13.52
2023-03-24T09:05:44.471Z,13.33
2023-03-24T09:08:40.904Z,13.22
2023-03-24T09:11:48.180Z,13.37
2023-03-24T09:14:56.942Z,13.61
2023-03-24T09:18:04.348Z,13.74
2023-03-24T09:21:12.548Z,13.76
2023-03-24T09:24:21.324Z,13.83
2023-03-24T09:27:29.106Z,13.95
2023-03-24T09:30:37.709Z,14.12
2023-03-24T09:33:46.791Z,14.29
2023-03-24T09:36:54.359Z,14.38
2023-03-24T09:40:01.564Z,14.61
2023-03-24T09:43:09.594Z,15.03
2023-03-24T09:46:18.724Z,15.17
2023-03-24T09:49:25.697Z,15.08
2023-03-24T09:52:33.500Z,14.90
2023-03-24T09:55:42.573Z,14.80
2023-03-24T09:58:49.555Z,14.65
2023-03-24T10:01:57.604Z,14.39
2023-03-24T10:05:06.583Z,14.19
2023-03-24T10:08:13.963Z,14.20
2023-03-24T10:11:21.844Z,14.27
2023-03-24T10:14:30.975Z,14.16
2023-03-24T10:17:38.509Z,14.01
2023-03-24T10:20:45.913Z,13.99
2023-03-24T10:23:53.525Z,13.94
2023-03-24T10:27:02.124Z,14.06
2023-03-24T10:30:09.482Z,14.12
2023-03-24T10:33:17.198Z,14.13
2023-03-24T10:36:25.713Z,14.20
2023-03-24T10:39:44.099Z,14.44
2023-03-24T10:42:37.987Z,14.57
2023-03-24T10:45:46.427Z,14.61
2023-03-24T10:48:54.265Z,14.64
2023-03-24T10:52:02.085Z,14.84
2023-03-24T10:55:11.511Z,14.74
2023-03-24T10:58:19.256Z,14.54
2023-03-24T11:01:26.709Z,14.72
2023-03-24T11:04:34.065Z,15.15
2023-03-24T11:07:43.059Z,15.30
2023-03-24T11:10:50.598Z,15.27
2023-03-24T11:13:57.949Z,15.24
2023-03-24T11:17:06.953Z,15.20
2023-03-24T11:20:14.840Z,15.24
2023-03-24T11:23:22.310Z,15.13
2023-03-24T11:26:31.075Z,15.12
2023-03-24T11:29:38.705Z,15.23
2023-03-24T11:32:45.933Z,15.52
2023-03-24T11:36:05.132Z,15.76
2023-03-24T11:38:59.772Z,15.75
2023-03-24T11:42:06.833Z,15.89
2023-03-24T11:45:14.433Z,15.96
2023-03-24T11:48:23.753Z,15.93
2023-03-24T11:51:30.885Z,16.04
2023-03-24T11:54:38.307Z,16.15
2023-03-24T11:57:47.486Z,16.06
2023-03-24T12:00:55.523Z,15.96
2023-03-24T12:04:03.048Z,15.99
2023-03-24T12:07:11.760Z,16.09
2023-03-24T12:10:19.554Z,16.37
2023-03-24T12:13:32.791Z,16.30
2023-03-24T12:16:32.314Z,16.34
2023-03-24T12:19:40.025Z,16.50
2023-03-24T12:22:47.114Z,16.60
2023-03-24T12:25:56.282Z,16.85
2023-03-24T12:29:03.591Z,16.85
2023-03-24T12:32:11.070Z,16.78
2023-03-24T12:35:18.891Z,16.78
2023-03-24T12:38:27.697Z,16.89
2023-03-24T12:41:35.304Z,16.99
2023-03-24T12:44:42.955Z,17.04
2023-03-24T12:47:52.409Z,16.52
2023-03-24T12:50:59.714Z,16.18
2023-03-24T12:54:06.797Z,15.78
2023-03-24T12:57:16.159Z,15.43
2023-03-24T13:00:24.015Z,15.30
2023-03-24T13:03:31.127Z,15.31
2023-03-24T13:06:40.352Z,15.43
2023-03-24T13:09:47.512Z,15.70
2023-03-24T13:12:55.122Z,15.82
2023-03-24T13:16:02.828Z,15.66
2023-03-24T13:19:11.433Z,15.52
2023-03-24T13:22:19.504Z,15.81
2023-03-24T13:25:27.132Z,15.96
2023-03-24T13:28:35.606Z,16.04
2023-03-24T13:31:43.671Z,15.96
2023-03-24T13:34:51.165Z,15.93
2023-03-24T13:38:00.155Z,15.86
2023-03-24T13:41:07.733Z,15.81
2023-03-24T13:44:15.340Z,16.04
2023-03-24T13:47:24.436Z,16.15
2023-03-24T13:50:31.752Z,16.04
2023-03-24T13:53:39.220Z,15.85
2023-03-24T13:56:46.952Z,15.70
2023-03-24T13:59:55.416Z,15.84
2023-03-24T14:03:03.514Z,15.78
2023-03-24T14:06:11.220Z,15.68
2023-03-24T14:09:19.730Z,15.60
2023-03-24T14:12:27.681Z,15.54
2023-03-24T14:15:35.519Z,15.61
2023-03-24T14:18:44.076Z,15.61
2023-03-24T14:21:51.695Z,15.68
2023-03-24T14:24:58.973Z,15.92
2023-03-24T14:28:07.734Z,16.11
2023-03-24T14:31:15.727Z,16.09
2023-03-24T14:34:23.724Z,16.00
2023-03-24T14:37:31.094Z,16.03
2023-03-24T14:40:39.951Z,16.22
2023-03-24T14:43:47.855Z,16.12
2023-03-24T14:46:55.230Z,15.93
2023-03-24T14:50:03.973Z,15.86
2023-03-24T14:53:11.669Z,15.70
2023-03-24T14:56:19.121Z,15.68
2023-03-24T14:59:27.685Z,15.48
2023-03-24T15:02:35.549Z,15.38
2023-03-24T15:05:43.027Z,15.21
2023-03-24T15:08:51.947Z,15.38
2023-03-24T15:12:00.097Z,15.63
2023-03-24T15:15:07.865Z,15.57
2023-03-24T15:18:16.694Z,15.39
2023-03-24T15:21:24.668Z,15.36
2023-03-24T15:24:31.942Z,15.43
2023-03-24T15:27:39.409Z,15.42
2023-03-24T15:30:48.716Z,15.21
2023-03-24T15:33:56.699Z,15.05
2023-03-24T15:37:03.904Z,14.95
2023-03-24T15:40:15.688Z,14.88
2023-03-24T15:40:47.978Z,14.87
2023-03-24T15:43:55.540Z,14.80
2023-03-24T15:47:03.286Z,14.91
2023-03-24T15:50:11.447Z,14.84
2023-03-24T15:53:18.958Z,14.60
2023-03-24T15:54:41.393Z,14.52
2023-03-24T15:57:49.402Z,14.54
2023-03-24T16:00:58.335Z,14.74
2023-03-24T16:04:05.634Z,14.98
2023-03-24T16:07:13.537Z,15.03
2023-03-24T16:10:22.454Z,15.02
2023-03-24T16:13:30.392Z,14.81
2023-03-24T16:16:38.125Z,14.60
2023-03-24T16:19:47.062Z,14.43
2023-03-24T16:22:54.555Z,14.31
2023-03-24T16:26:02.027Z,14.25
2023-03-24T16:29:11.311Z,14.19
2023-03-24T16:32:18.492Z,14.10
2023-03-24T16:35:26.492Z,14.04
2023-03-24T16:38:33.664Z,14.09
2023-03-24T16:41:42.272Z,14.13
2023-03-24T16:44:50.172Z,14.13
2023-03-24T16:47:58.457Z,14.04
2023-03-24T16:51:07.454Z,13.91
2023-03-24T16:54:15.992Z,13.77
2023-03-24T16:57:24.298Z,13.63
2023-03-24T17:00:33.346Z,13.59
2023-03-24T17:03:42.227Z,13.52
2023-03-24T17:06:51.808Z,13.51
2023-03-24T17:10:01.115Z,13.49
2023-03-24T17:13:08.597Z,13.43
2023-03-24T17:16:16.199Z,13.38
2023-03-24T17:19:23.789Z,13.32
2023-03-24T17:22:33.164Z,13.40
2023-03-24T17:25:40.784Z,12.99
2023-03-24T17:28:48.706Z,11.36
2023-03-24T17:31:57.202Z,10.40
2023-03-24T17:35:04.987Z,9.99
2023-03-24T17:38:12.820Z,9.76
2023-03-24T17:41:21.287Z,9.49
2023-03-24T17:44:28.966Z,9.42
2023-03-24T17:47:36.358Z,9.28
2023-03-24T17:50:45.226Z,9.30
2023-03-24T17:53:53.042Z,9.28
2023-03-24T17:57:00.400Z,9.38
2023-03-24T18:00:07.766Z,9.43
2023-03-24T18:03:16.848Z,9.49
2023-03-24T18:06:24.450Z,9.57
2023-03-24T18:09:32.186Z,9.58
2023-03-24T18:12:40.794Z,9.61
2023-03-24T18:15:48.704Z,9.56
2023-03-24T18:18:56.640Z,9.53
2023-03-24T18:22:05.158Z,9.50
2023-03-24T18:25:13.242Z,9.42
2023-03-24T18:28:21.044Z,9.31
2023-03-24T18:31:29.533Z,9.24
2023-03-24T18:34:37.465Z,9.13
2023-03-24T18:37:45.293Z,9.05
2023-03-24T18:40:54.128Z,8.97
2023-03-24T18:44:02.114Z,8.90
2023-03-24T18:47:09.765Z,8.84
2023-03-24T18:50:17.251Z,8.81
2023-03-24T18:53:26.480Z,8.73
2023-03-24T18:56:33.618Z,8.75
2023-03-24T18:59:41.426Z,8.71
2023-03-24T19:02:50.602Z,8.66
2023-03-24T19:05:58.866Z,8.60
2023-03-24T19:09:06.313Z,8.58
2023-03-24T19:12:15.326Z,8.54
2023-03-24T19:15:23.560Z,8.51
2023-03-24T19:18:31.082Z,8.42
2023-03-24T19:21:39.872Z,8.39
2023-03-24T19:24:47.773Z,8.40
2023-03-24T19:27:55.482Z,8.42
2023-03-24T19:31:03.154Z,8.44
2023-03-24T19:34:12.910Z,8.44
2023-03-24T19:37:20.811Z,8.44
2023-03-24T19:40:28.136Z,8.50
2023-03-24T19:43:37.562Z,8.50
2023-03-24T19:46:46.053Z,8.54
2023-03-24T19:49:54.139Z,8.62
2023-03-24T19:53:02.927Z,8.72
2023-03-24T19:56:10.443Z,8.79
2023-03-24T19:59:18.157Z,8.83
2023-03-24T20:02:27.450Z,8.86
2023-03-24T20:05:35.018Z,8.86
2023-03-24T20:08:42.573Z,8.86
2023-03-24T20:11:50.095Z,8.87
2023-03-24T20:14:59.309Z,8.91
2023-03-24T20:18:06.825Z,8.88
2023-03-24T20:21:14.182Z,8.91
2023-03-24T20:24:23.702Z,8.88
2023-03-24T20:27:30.797Z,8.87
2023-03-24T20:30:38.512Z,8.81
2023-03-24T20:33:47.805Z,8.83
2023-03-24T20:36:54.895Z,8.84
2023-03-24T20:40:03.697Z,8.83
2023-03-24T20:43:12.755Z,8.83
2023-03-24T20:46:20.772Z,8.76
2023-03-24T20:49:28.642Z,8.73
2023-03-24T20:52:36.207Z,8.69
2023-03-24T20:55:45.361Z,8.65
2023-03-24T20:58:52.505Z,8.62
2023-03-24T21:02:00.083Z,8.66
2023-03-24T21:05:09.329Z,8.69
2023-03-24T21:08:16.363Z,8.69
2023-03-24T21:11:24.033Z,8.66
2023-03-24T21:14:33.564Z,8.62
2023-03-24T21:17:40.911Z,8.62
2023-03-24T21:20:48.946Z,8.60
2023-03-24T21:23:58.341Z,8.60
2023-03-24T21:27:05.466Z,8.62
2023-03-24T21:30:13.502Z,8.63
2023-03-24T21:33:22.288Z,8.62
2023-03-24T21:36:30.120Z,8.63
2023-03-24T21:39:37.892Z,8.63
2023-03-24T21:42:45.331Z,8.63
2023-03-24T21:45:54.227Z,8.63
2023-03-24T21:49:02.112Z,8.63
2023-03-24T21:52:09.766Z,8.58
2023-03-24T21:55:18.733Z,8.53
2023-03-24T21:58:26.374Z,8.47
2023-03-24T22:01:33.735Z,8.45
2023-03-24T22:04:42.469Z,8.44
2023-03-24T22:07:50.073Z,8.40
2023-03-24T22:10:57.937Z,8.35
2023-03-24T22:14:07.248Z,8.35
2023-03-24T22:17:14.286Z,8.32
2023-03-24T22:20:21.883Z,8.33
2023-03-24T22:23:29.864Z,8.32
2023-03-24T22:26:38.221Z,8.26
2023-03-24T22:29:45.929Z,8.18
2023-03-24T22:32:53.526Z,8.14
2023-03-24T22:36:02.403Z,8.15
2023-03-24T22:39:09.808Z,8.17
2023-03-24T22:42:17.448Z,8.18
2023-03-24T22:45:26.636Z,8.20
2023-03-24T22:48:34.386Z,8.22
2023-03-24T22:51:41.888Z,8.28
2023-03-24T22:54:50.639Z,8.25
2023-03-24T22:57:58.024Z,8.26
2023-03-24T23:01:05.459Z,8.28
2023-03-24T23:04:13.009Z,8.28
2023-03-24T23:07:21.917Z,8.29
2023-03-24T23:10:29.905Z,8.35
2023-03-24T23:13:37.465Z,8.40
2023-03-24T23:16:46.265Z,8.47
2023-03-24T23:19:54.044Z,8.54
2023-03-24T23:23:01.031Z,8.54
2023-03-24T23:26:10.124Z,8.55
2023-03-24T23:29:17.530Z,8.58
2023-03-24T23:32:24.862Z,8.57
2023-03-24T23:35:34.075Z,8.57
2023-03-24T23:38:41.838Z,8.60
2023-03-24T23:41:49.025Z,8.68
2023-03-24T23:44:58.281Z,8.73
2023-03-24T23:48:05.943Z,8.79
2023-03-24T23:51:13.315Z,8.88
2023-03-24T23:54:21.325Z,8.97
2023-03-24T23:57:30.292Z,9.02
